Time;durP1;ratioP1;P1;durP2;ratioP2;P2;SDS_P1;SDS_P2;PMS_P1;PMS_P2;Temp;Humidity;BMP_temperature;BMP_pressure;BME280_temperature;BME280_humidity;BME280_pressure;Samples;Min_cycle;Max_cycle;Signal;HPM_P1;HPM_P2
2022/10/29 00:01:51;;;;;;;25.50;8.48;;;;;;;;;;6100144;23;20041;-82
2022/10/29 00:04:17;;;;;;;24.92;8.95;;;;;;;;;;6100656;23;20013;-82
2022/10/29 00:06:43;;;;;;;33.00;7.80;;;;;;;;;;6100306;23;20980;-82
2022/10/29 00:09:09;;;;;;;19.85;7.55;;;;;;;;;;6100363;23;20018;-82
2022/10/29 00:11:36;;;;;;;20.63;7.82;;;;;;;;;;6099847;23;20064;-82
2022/10/29 00:14:02;;;;;;;26.10;7.88;;;;;;;;;;6100248;23;20020;-82
2022/10/29 00:16:34;;;;;;;19.40;7.50;;;13.70;99.90;;;;;;6100691;23;20084;-81
2022/10/29 00:19:00;;;;;;;27.67;7.95;;;;;;;;;;6100193;23;20018;-81
2022/10/29 00:21:27;;;;;;;26.27;8.50;;;;;;;;;;6100317;23;20409;-82
2022/10/29 00:23:53;;;;;;;23.83;8.30;;;;;;;;;;6100155;23;20348;-81
2022/10/29 00:26:20;;;;;;;24.77;8.02;;;;;;;;;;6100553;23;20054;-82
2022/10/29 00:28:47;;;;;;;22.33;7.82;;;;;;;;;;6100724;23;20020;-81
2022/10/29 00:31:17;;;;;;;32.42;8.60;;;13.30;99.90;;;;;;6100077;23;20021;-82
2022/10/29 00:33:43;;;;;;;24.27;8.05;;;;;;;;;;6076173;23;20089;-82
2022/10/29 00:36:12;;;;;;;34.58;8.30;;;13.40;99.90;;;;;;6074532;23;20022;-82
2022/10/29 00:38:38;;;;;;;36.80;8.57;;;;;;;;;;6071388;23;20360;-82
2022/10/29 00:41:05;;;;;;;24.17;8.20;;;13.30;99.90;;;;;;6071336;23;20082;-82
2022/10/29 00:43:36;;;;;;;25.65;10.10;;;;;;;;;;6071322;23;20018;-82
2022/10/29 00:46:04;;;;;;;28.48;9.23;;;;;;;;;;6071436;23;20022;-82
2022/10/29 00:48:33;;;;;;;35.78;8.77;;;;;;;;;;6071348;23;20026;-82
2022/10/29 00:51:01;;;;;;;37.72;9.52;;;13.30;99.90;;;;;;6071472;23;20464;-82
2022/10/29 00:53:29;;;;;;;45.35;9.10;;;13.30;99.90;;;;;;6047418;23;20026;-82
2022/10/29 00:55:56;;;;;;;45.38;9.35;;;;;;;;;;6071094;23;20030;-82
2022/10/29 00:58:22;;;;;;;152.30;13.00;;;;;;;;;;6047277;23;20018;-82
2022/10/29 01:00:48;;;;;;;93.38;12.70;;;;;;;;;;6047403;23;20058;-82
2022/10/29 01:03:14;;;;;;;40.30;9.48;;;;;;;;;;6071254;23;20018;-83
2022/10/29 01:05:40;;;;;;;29.48;8.80;;;;;;;;;;6071172;23;20027;-82
2022/10/29 01:08:06;;;;;;;44.30;10.10;;;;;;;;;;6070939;23;20050;-83
2022/10/29 01:10:55;;;;;;;73.13;10.60;;;13.30;99.90;;;;;;6070866;23;20109;-82
2022/10/29 01:13:31;;;;;;;55.90;10.05;;;;;;;;;;5932953;24;20024;-82
2022/10/29 01:15:57;;;;;;;101.53;11.00;;;;;;;;;;5956591;24;20080;-82
2022/10/29 01:18:35;;;;;;;28.77;8.35;;;13.20;99.90;;;;;;5956713;24;20028;-83
2022/10/29 01:21:07;;;;;;;144.88;13.85;;;;;;;;;;5956628;24;20024;-82
2022/10/29 01:23:33;;;;;;;76.50;11.60;;;;;;;;;;5956547;24;20102;-83
2022/10/29 01:26:13;;;;;;;93.68;11.88;;;13.20;99.90;;;;;;5956379;24;20429;-81
2022/10/29 01:28:45;;;;;;;78.60;10.82;;;;;;;;;;5956580;24;20016;-82
2022/10/29 01:31:20;;;;;;;81.20;10.50;;;;;;;;;;5956555;23;20132;-82
2022/10/29 01:34:00;;;;;;;104.90;11.60;;;13.20;99.90;;;;;;5956595;24;20023;-82
2022/10/29 01:36:38;;;;;;;157.68;13.50;;;13.10;99.90;;;;;;5933275;24;20020;-82
2022/10/29 01:39:17;;;;;;;96.10;9.63;;;13.20;99.90;;;;;;5956407;24;20031;-82
2022/10/29 01:41:56;;;;;;;181.13;13.25;;;;;;;;;;5933396;24;20024;-82
2022/10/29 01:44:38;;;;;;;38.17;8.02;;;13.10;99.90;;;;;;5956319;24;20012;-81
2022/10/29 01:47:12;;;;;;;169.20;12.98;;;13.30;99.90;;;;;;5956526;24;20024;-82
2022/10/29 01:49:42;;;;;;;142.80;13.68;;;13.00;99.90;;;;;;5955467;23;20093;-82
2022/10/29 01:52:11;;;;;;;40.70;8.27;;;13.10;99.90;;;;;;6070581;23;20025;-81
2022/10/29 01:54:41;;;;;;;259.40;17.08;;;;;;;;;;6070330;23;20085;-81
2022/10/29 01:57:25;;;;;;;25.58;8.55;;;;;;;;;;6070706;23;20022;-82
2022/10/29 01:59:52;;;;;;;37.95;8.10;;;;;;;;;;6070578;23;20484;-81
2022/10/29 02:02:36;;;;;;;51.65;9.18;;;13.10;99.90;;;;;;6046791;23;20066;-82
2022/10/29 02:05:10;;;;;;;83.78;9.80;;;13.00;99.90;;;;;;6070502;23;20018;-82
2022/10/29 02:07:42;;;;;;;132.20;11.15;;;;;;;;;;6070456;23;20015;-82
2022/10/29 02:10:24;;;;;;;91.38;9.10;;;13.10;99.90;;;;;;6070130;23;20355;-82
2022/10/29 02:12:52;;;;;;;38.20;7.93;;;;;;;;;;6070610;23;20022;-82
2022/10/29 02:15:34;;;;;;;116.90;13.63;;;13.00;99.90;;;;;;6047057;23;20019;-83
2022/10/29 02:18:06;;;;;;;92.72;9.57;;;13.00;99.90;;;;;;6070594;23;20044;-83
2022/10/29 02:20:32;;;;;;;109.50;10.50;;;;;;;;;;6070410;23;20018;-83
2022/10/29 02:22:58;;;;;;;17.98;7.00;;;;;;;;;;6070386;23;20015;-83
2022/10/29 02:25:24;;;;;;;49.63;8.55;;;;;;;;;;6070358;23;20023;-83
2022/10/29 02:27:50;;;;;;;120.25;10.23;;;;;;;;;;6046666;23;20073;-83
2022/10/29 02:30:16;;;;;;;16.55;6.20;;;;;;;;;;6070664;23;20104;-83
2022/10/29 02:32:42;;;;;;;75.78;8.32;;;;;;;;;;6070617;23;20022;-83
2022/10/29 02:35:09;;;;;;;17.65;7.30;;;;;;;;;;6083950;23;20097;-83
2022/10/29 02:37:35;;;;;;;116.93;10.60;;;;;;;;;;6099333;23;20021;-83
2022/10/29 02:40:01;;;;;;;16.75;6.60;;;;;;;;;;6075219;23;20076;-83
2022/10/29 02:42:27;;;;;;;133.30;11.90;;;;;;;;;;6099123;23;20025;-83
2022/10/29 02:44:53;;;;;;;159.07;12.38;;;;;;;;;;6075389;23;20018;-83
2022/10/29 02:47:20;;;;;;;94.00;10.75;;;;;;;;;;6099361;23;20149;-82
2022/10/29 02:49:46;;;;;;;48.22;9.18;;;;;;;;;;6074867;23;20100;-83
2022/10/29 02:52:12;;;;;;;42.03;8.20;;;;;;;;;;6098866;23;20013;-82
2022/10/29 02:54:38;;;;;;;33.53;7.90;;;;;;;;;;6099018;23;20030;-81
2022/10/29 02:57:04;;;;;;;90.38;12.15;;;;;;;;;;6098826;23;20018;-81
2022/10/29 02:59:30;;;;;;;131.02;11.82;;;;;;;;;;6074915;23;20301;-81
2022/10/29 03:01:56;;;;;;;258.48;17.65;;;;;;;;;;6098995;23;20145;-81
2022/10/29 03:04:22;;;;;;;28.63;7.93;;;;;;;;;;6099044;23;20017;-81
2022/10/29 03:06:48;;;;;;;60.17;8.93;;;;;;;;;;6098796;23;20025;-81
2022/10/29 03:09:14;;;;;;;43.10;9.35;;;;;;;;;;6098889;23;20049;-81
2022/10/29 03:11:40;;;;;;;31.35;8.20;;;;;;;;;;6098949;23;20041;-81
2022/10/29 03:14:06;;;;;;;38.00;7.53;;;;;;;;;;6098810;23;20018;-81
2022/10/29 03:16:32;;;;;;;61.42;9.93;;;;;;;;;;6098684;23;20050;-82
2022/10/29 03:18:58;;;;;;;209.25;15.88;;;;;;;;;;6098616;23;20014;-82
2022/10/29 03:21:24;;;;;;;162.68;14.73;;;;;;;;;;6074618;23;20018;-82
2022/10/29 03:23:51;;;;;;;131.57;10.55;;;;;;;;;;6098777;23;20022;-82
2022/10/29 03:26:17;;;;;;;43.33;7.18;;;;;;;;;;6074833;23;20081;-82
2022/10/29 03:28:43;;;;;;;114.63;10.48;;;;;;;;;;6098805;23;20073;-82
2022/10/29 03:31:09;;;;;;;62.55;8.38;;;;;;;;;;6098876;23;20018;-82
2022/10/29 03:33:35;;;;;;;33.40;7.65;;;;;;;;;;6098829;23;20056;-82
2022/10/29 03:36:04;;;;;;;59.90;9.20;;;;;;;;;;6099591;23;20443;-82
2022/10/29 03:38:30;;;;;;;44.25;8.65;;;;;;;;;;6101649;23;20065;-82
2022/10/29 03:40:56;;;;;;;129.65;12.93;;;;;;;;;;6101510;23;20021;-82
2022/10/29 03:43:23;;;;;;;204.23;14.50;;;;;;;;;;6101071;23;20036;-83
2022/10/29 03:45:53;;;;;;;121.95;11.60;;;12.70;99.90;;;;;;6101338;23;20026;-83
2022/10/29 03:48:20;;;;;;;79.78;8.90;;;;;;;;;;6077358;23;20025;-83
2022/10/29 03:50:56;;;;;;;63.28;8.30;;;12.60;99.90;;;;;;6100983;23;20053;-83
2022/10/29 03:53:23;;;;;;;42.47;8.35;;;;;;;;;;6101103;23;20010;-82
2022/10/29 03:55:50;;;;;;;58.10;8.95;;;12.70;99.90;;;;;;6100930;23;20100;-82
2022/10/29 03:58:16;;;;;;;60.70;7.97;;;12.60;99.90;;;;;;6076602;23;20045;-82
2022/10/29 04:00:42;;;;;;;83.07;10.10;;;;;;;;;;6076889;23;20049;-82
2022/10/29 04:03:08;;;;;;;119.20;11.35;;;;;;;;;;6101182;23;20018;-82
2022/10/29 04:05:34;;;;;;;141.80;11.13;;;;;;;;;;6100842;23;20069;-83
2022/10/29 04:08:01;;;;;;;176.75;13.32;;;;;;;;;;6100776;23;20398;-83
2022/10/29 04:10:27;;;;;;;171.55;12.43;;;;;;;;;;6101269;23;20018;-83
2022/10/29 04:12:53;;;;;;;46.47;7.97;;;;;;;;;;6100878;23;20014;-83
2022/10/29 04:15:19;;;;;;;53.67;8.18;;;;;;;;;;6101156;23;20021;-83
2022/10/29 04:17:45;;;;;;;77.80;9.50;;;;;;;;;;6100703;23;20014;-83
2022/10/29 04:20:11;;;;;;;28.25;7.30;;;;;;;;;;6100283;23;20052;-83
2022/10/29 04:22:37;;;;;;;76.43;8.02;;;;;;;;;;6100572;23;20046;-83
2022/10/29 04:25:04;;;;;;;36.53;6.55;;;;;;;;;;6100731;23;20081;-82
2022/10/29 04:27:31;;;;;;;15.98;6.35;;;;;;;;;;6100645;23;20049;-83
2022/10/29 04:29:57;;;;;;;81.07;8.88;;;;;;;;;;6100647;23;20100;-83
2022/10/29 04:32:23;;;;;;;146.35;12.25;;;;;;;;;;6100190;23;20018;-83
2022/10/29 04:34:49;;;;;;;111.00;10.55;;;;;;;;;;6076290;23;20025;-83
2022/10/29 04:37:15;;;;;;;86.35;11.02;;;;;;;;;;6100630;23;20049;-83
2022/10/29 04:39:41;;;;;;;109.10;11.98;;;;;;;;;;6100791;23;20068;-83
2022/10/29 04:42:07;;;;;;;99.60;11.45;;;;;;;;;;6076563;23;20460;-83
2022/10/29 04:44:33;;;;;;;175.63;14.05;;;;;;;;;;6100560;23;20018;-83
2022/10/29 04:46:59;;;;;;;91.00;10.35;;;;;;;;;;6076737;23;20022;-83
2022/10/29 04:49:25;;;;;;;235.20;17.92;;;;;;;;;;6076569;23;20053;-83
2022/10/29 04:51:51;;;;;;;72.43;10.23;;;;;;;;;;6100761;23;20022;-83
2022/10/29 04:54:17;;;;;;;194.30;15.80;;;;;;;;;;6100607;23;20085;-83
2022/10/29 04:56:44;;;;;;;70.60;10.05;;;;;;;;;;6076646;23;20018;-83
2022/10/29 04:59:10;;;;;;;121.10;12.70;;;;;;;;;;6100767;23;20483;-83
2022/10/29 05:01:36;;;;;;;107.90;11.20;;;;;;;;;;6076713;23;20022;-82
2022/10/29 05:04:02;;;;;;;127.60;11.50;;;;;;;;;;6076224;23;20021;-83
2022/10/29 05:06:28;;;;;;;93.57;11.85;;;;;;;;;;6076399;23;20324;-83
2022/10/29 05:08:54;;;;;;;156.90;13.57;;;;;;;;;;6100357;23;20018;-82
2022/10/29 05:11:20;;;;;;;96.80;11.40;;;;;;;;;;6100482;23;20033;-83
2022/10/29 05:13:46;;;;;;;180.63;15.30;;;;;;;;;;6076337;23;20325;-83
2022/10/29 05:16:12;;;;;;;58.80;10.20;;;;;;;;;;6100397;23;20033;-83
2022/10/29 05:18:38;;;;;;;73.93;9.85;;;;;;;;;;6100295;23;20021;-83
2022/10/29 05:21:04;;;;;;;82.90;11.25;;;;;;;;;;6100109;23;20340;-83
2022/10/29 05:23:30;;;;;;;72.72;10.40;;;;;;;;;;6076462;23;20466;-83
2022/10/29 05:25:57;;;;;;;95.05;12.35;;;;;;;;;;6076824;23;20022;-83
2022/10/29 05:28:23;;;;;;;70.72;11.45;;;;;;;;;;6100443;23;20053;-83
2022/10/29 05:30:50;;;;;;;100.15;11.57;;;;;;;;;;6100568;23;20024;-83
2022/10/29 05:33:18;;;;;;;100.57;11.55;;;;;;;;;;6100306;23;20145;-83
2022/10/29 05:35:44;;;;;;;85.13;12.27;;;;;;;;;;6099397;23;20022;-83
2022/10/29 05:38:11;;;;;;;78.55;11.65;;;;;;;;;;6100027;23;20113;-83
2022/10/29 05:40:37;;;;;;;30.65;8.70;;;;;;;;;;6099861;23;20061;-82
2022/10/29 05:43:03;;;;;;;94.47;11.98;;;;;;;;;;6099831;23;20370;-83
2022/10/29 05:45:29;;;;;;;137.73;14.30;;;;;;;;;;6076244;23;20057;-83
2022/10/29 05:48:00;;;;;;;35.58;8.85;;;12.80;99.90;;;;;;6075942;23;20010;-83
2022/10/29 05:50:26;;;;;;;25.08;8.85;;;;;;;;;;6076049;23;20018;-83
2022/10/29 05:53:01;;;;;;;38.42;8.82;;;12.80;99.90;;;;;;6100125;23;20022;-83
2022/10/29 05:55:27;;;;;;;65.05;9.25;;;12.90;99.90;;;;;;6099612;23;20025;-83
2022/10/29 05:58:02;;;;;;;49.80;9.15;;;12.90;99.90;;;;;;6074864;23;20042;-83
2022/10/29 06:00:30;;;;;;;69.57;9.73;;;12.90;99.90;;;;;;6075070;23;20100;-83
2022/10/29 06:02:56;;;;;;;112.22;12.45;;;;;;;;;;6099158;23;20014;-83
2022/10/29 06:05:22;;;;;;;66.63;9.15;;;;;;;;;;6098846;23;20445;-83
2022/10/29 06:07:55;;;;;;;122.55;12.20;;;;;;;;;;6099235;23;20022;-83
2022/10/29 06:10:22;;;;;;;56.30;10.70;;;;;;;;;;6075137;23;20018;-83
2022/10/29 06:12:48;;;;;;;64.18;9.18;;;;;;;;;;6075265;23;20022;-83
2022/10/29 06:15:15;;;;;;;77.10;8.52;;;;;;;;;;6098779;23;20456;-83
2022/10/29 06:17:41;;;;;;;105.75;10.90;;;;;;;;;;6098830;23;20046;-83
2022/10/29 06:20:08;;;;;;;35.13;8.48;;;;;;;;;;6074956;23;20021;-83
2022/10/29 06:22:34;;;;;;;63.30;8.85;;;;;;;;;;6098661;23;20018;-83
2022/10/29 06:25:00;;;;;;;89.55;10.80;;;;;;;;;;6098837;23;20022;-83
2022/10/29 06:27:26;;;;;;;71.88;9.68;;;;;;;;;;6074981;23;20018;-83
2022/10/29 06:29:52;;;;;;;80.72;10.77;;;;;;;;;;6099026;23;20081;-83
2022/10/29 06:32:18;;;;;;;126.55;12.60;;;;;;;;;;6074993;23;20014;-82
2022/10/29 06:34:44;;;;;;;43.78;9.10;;;;;;;;;;6097673;23;20053;-82
2022/10/29 06:37:11;;;;;;;26.25;7.85;;;;;;;;;;6099132;23;20026;-82
2022/10/29 06:39:37;;;;;;;73.95;10.85;;;;;;;;;;6098641;23;20410;-82
2022/10/29 06:42:03;;;;;;;81.97;10.13;;;;;;;;;;6098742;23;20045;-82
2022/10/29 06:44:29;;;;;;;53.17;8.85;;;;;;;;;;6074675;23;20021;-82
2022/10/29 06:46:55;;;;;;;61.90;9.95;;;;;;;;;;6098624;23;20018;-82
2022/10/29 06:49:21;;;;;;;72.82;12.25;;;;;;;;;;6098775;23;20022;-82
2022/10/29 06:51:48;;;;;;;48.60;10.63;;;;;;;;;;6074877;23;20085;-82
2022/10/29 06:54:14;;;;;;;22.15;10.02;;;;;;;;;;6074627;23;20021;-82
2022/10/29 06:56:40;;;;;;;40.67;8.48;;;;;;;;;;6074597;23;20482;-82
2022/10/29 06:59:06;;;;;;;48.97;9.98;;;;;;;;;;6098533;23;20542;-82
2022/10/29 07:01:32;;;;;;;22.95;7.93;;;;;;;;;;6098535;23;20063;-82
2022/10/29 07:03:59;;;;;;;120.95;14.07;;;12.80;99.90;;;;;;6098809;23;20018;-82
2022/10/29 07:06:25;;;;;;;32.13;9.88;;;;;;;;;;6074807;23;20050;-82
2022/10/29 07:08:51;;;;;;;63.00;10.88;;;;;;;;;;6099099;23;20022;-83
2022/10/29 07:11:17;;;;;;;88.20;11.52;;;;;;;;;;6074326;23;20029;-84
2022/10/29 07:13:43;;;;;;;76.68;10.70;;;;;;;;;;6074698;23;20014;-84
2022/10/29 07:16:09;;;;;;;112.05;13.05;;;;;;;;;;6074565;23;20021;-84
2022/10/29 07:18:35;;;;;;;55.22;10.55;;;;;;;;;;6074230;23;20014;-85
2022/10/29 07:21:02;;;;;;;56.78;10.68;;;;;;;;;;6074476;23;20104;-84
2022/10/29 07:23:28;;;;;;;29.65;10.75;;;;;;;;;;6074485;23;20550;-84
2022/10/29 07:25:55;;;;;;;119.20;14.07;;;;;;;;;;6074637;23;20018;-84
2022/10/29 07:28:22;;;;;;;71.22;11.35;;;;;;;;;;6098489;23;20021;-83
2022/10/29 07:30:48;;;;;;;77.82;11.00;;;;;;;;;;6098486;23;20029;-83
2022/10/29 07:33:14;;;;;;;81.68;11.90;;;;;;;;;;6074664;23;20081;-83
2022/10/29 07:35:41;;;;;;;69.00;12.95;;;;;;;;;;6074262;23;20510;-83
2022/10/29 07:38:08;;;;;;;50.90;11.63;;;13.00;99.90;;;;;;6074510;23;20025;-83
2022/10/29 07:40:34;;;;;;;63.80;11.30;;;;;;;;;;6098463;23;20072;-83
2022/10/29 07:43:00;;;;;;;35.13;9.82;;;;;;;;;;6098473;23;20053;-83
2022/10/29 07:45:27;;;;;;;40.25;10.25;;;;;;;;;;6098445;23;20014;-83
2022/10/29 07:48:00;;;;;;;33.58;9.35;;;13.20;99.90;;;;;;6098505;23;20018;-83
2022/10/29 07:50:27;;;;;;;94.63;13.68;;;;;;;;;;6098269;23;20463;-83
2022/10/29 07:52:53;;;;;;;52.58;10.27;;;;;;;;;;6098467;23;20462;-83
2022/10/29 07:55:19;;;;;;;89.22;13.30;;;;;;;;;;6098996;23;20048;-83
2022/10/29 07:57:45;;;;;;;94.38;12.98;;;;;;;;;;6098425;23;20455;-82
2022/10/29 08:00:11;;;;;;;60.10;13.70;;;;;;;;;;6073994;23;20065;-82
2022/10/29 08:02:38;;;;;;;66.15;13.55;;;;;;;;;;6074250;23;20018;-82
2022/10/29 08:05:04;;;;;;;80.22;13.82;;;;;;;;;;6098294;23;20022;-82
2022/10/29 08:07:30;;;;;;;72.03;14.48;;;13.30;99.90;;;;;;6098168;23;20469;-82
2022/10/29 08:09:56;;;;;;;48.08;12.90;;;;;;;;;;6098405;23;20089;-82
2022/10/29 08:12:22;;;;;;;50.22;13.98;;;;;;;;;;6098170;23;20028;-82
2022/10/29 08:14:48;;;;;;;53.50;14.15;;;;;;;;;;6074629;23;20025;-82
2022/10/29 08:17:14;;;;;;;50.85;14.85;;;;;;;;;;6074167;23;20018;-82
2022/10/29 08:19:41;;;;;;;58.95;14.90;;;;;;;;;;6075001;23;20440;-82
2022/10/29 08:22:07;;;;;;;50.70;15.88;;;;;;;;;;6099777;23;20018;-82
2022/10/29 08:24:34;;;;;;;54.05;16.63;;;;;;;;;;6100951;23;20092;-82
2022/10/29 08:27:00;;;;;;;52.58;17.33;;;;;;;;;;6076449;23;20109;-82
2022/10/29 08:29:26;;;;;;;62.80;17.70;;;;;;;;;;6100043;23;20018;-82
2022/10/29 08:31:55;;;;;;;54.90;17.95;;;;;;;;;;6101487;23;20068;-82
2022/10/29 08:34:21;;;;;;;56.92;20.05;;;;;;;;;;6076624;23;20029;-82
2022/10/29 08:36:47;;;;;;;52.67;18.63;;;;;;;;;;6076517;23;20080;-82
2022/10/29 08:39:14;;;;;;;53.72;18.60;;;;;;;;;;6076819;23;20021;-82
2022/10/29 08:42:33;;;;;;;51.10;17.50;;;13.70;99.90;;;;;;6076150;23;20026;-82
2022/10/29 08:44:59;;;;;;;52.47;19.00;;;;;;;;;;6013073;23;20034;-82
2022/10/29 08:47:40;;;;;;;47.97;18.23;;;13.80;99.90;;;;;;6012782;23;20476;-82
2022/10/29 08:50:21;;;;;;;38.22;17.75;;;;;;;;;;5989061;23;20026;-82
2022/10/29 08:52:51;;;;;;;48.70;18.70;;;;;;;;;;6013219;23;20034;-82
2022/10/29 08:55:17;;;;;;;44.92;18.33;;;;;;;;;;6012835;23;20029;-81
2022/10/29 08:58:18;;;;;;;41.53;18.02;;;14.00;99.90;;;;;;6012643;23;20035;-82
2022/10/29 09:00:45;;;;;;;44.40;21.17;;;;;;;;;;5928676;24;20028;-82
2022/10/29 09:03:12;;;;;;;47.47;19.55;;;;;;;;;;5905477;24;20025;-82
2022/10/29 09:06:03;;;;;;;50.65;20.83;;;14.20;99.90;;;;;;5906497;24;20464;-82
2022/10/29 09:08:29;;;;;;;47.00;23.58;;;;;;;;;;5906370;24;20020;-82
2022/10/29 09:11:11;;;;;;;61.80;27.98;;;14.20;99.90;;;;;;5905924;24;20421;-82
2022/10/29 09:13:46;;;;;;;54.92;30.00;;;;;;;;;;5927654;24;20028;-82
2022/10/29 09:16:41;;;;;;;64.82;31.23;;;14.20;99.90;;;;;;5928618;24;20065;-82
2022/10/29 09:19:26;;;;;;;64.20;33.85;;;;;;;;;;5944373;23;20112;-82
2022/10/29 09:22:04;;;;;;;61.72;34.53;;;14.20;99.90;;;;;;5983656;23;20023;-82
2022/10/29 09:24:41;;;;;;;59.95;33.78;;;14.30;99.90;;;;;;5984510;23;20045;-81
2022/10/29 09:27:14;;;;;;;63.22;33.08;;;14.30;99.90;;;;;;5961224;23;20016;-81
2022/10/29 09:30:13;;;;;;;59.70;32.28;;;14.40;99.90;;;;;;6006116;23;20095;-82
2022/10/29 09:32:45;;;;;;;55.50;29.48;;;;;;;;;;5960456;23;20047;-82
2022/10/29 09:35:14;;;;;;;48.92;25.15;;;14.20;99.90;;;;;;5997499;23;20084;-81
2022/10/29 09:37:47;;;;;;;54.42;23.05;;;;;;;;;;6059796;23;20076;-82
2022/10/29 09:40:20;;;;;;;37.72;18.73;;;;;;;;;;6099324;23;20443;-82
2022/10/29 09:42:47;;;;;;;43.08;20.92;;;14.40;99.90;;;;;;6099474;23;20022;-82
2022/10/29 09:45:15;;;;;;;35.65;18.77;;;;;;;;;;6098442;23;20013;-82
2022/10/29 09:48:02;;;;;;;34.17;18.98;;;14.40;99.90;;;;;;6075069;23;20018;-82
2022/10/29 09:50:50;;;;;;;32.72;17.70;;;14.30;99.90;;;;;;6075646;23;20040;-83
2022/10/29 09:53:16;;;;;;;33.47;18.85;;;;;;;;;;6099391;23;20021;-82
2022/10/29 09:55:45;;;;;;;39.63;17.60;;;14.60;99.90;;;;;;6099538;23;20487;-82
2022/10/29 09:58:23;;;;;;;35.15;18.08;;;14.40;99.90;;;;;;6098928;23;20033;-82
2022/10/29 10:00:49;;;;;;;34.70;16.92;;;;;;;;;;6075173;23;20021;-82
2022/10/29 10:03:27;;;;;;;35.75;19.45;;;14.60;99.90;;;;;;6099371;23;20475;-82
2022/10/29 10:06:02;;;;;;;31.25;18.67;;;14.60;99.90;;;;;;6099458;23;20014;-82
2022/10/29 10:08:29;;;;;;;37.67;19.17;;;15.10;99.90;;;;;;6099029;23;20045;-83
2022/10/29 10:10:58;;;;;;;39.67;19.23;;;14.80;99.90;;;;;;6099051;23;20018;-83
2022/10/29 10:13:50;;;;;;;38.35;18.92;;;15.00;99.90;;;;;;6075205;23;20024;-83
2022/10/29 10:16:22;;;;;;;33.58;19.85;;;;;;;;;;6075049;23;20101;-82
2022/10/29 10:18:48;;;;;;;39.20;17.33;;;;;;;;;;6075446;23;20014;-83
2022/10/29 10:21:28;;;;;;;40.67;18.95;;;14.90;99.90;;;;;;6098424;23;20025;-83
2022/10/29 10:23:56;;;;;;;38.60;18.48;;;15.10;99.90;;;;;;6075203;23;20018;-83
2022/10/29 10:26:25;;;;;;;34.03;18.30;;;;;;;;;;6075234;23;20051;-82
2022/10/29 10:29:25;;;;;;;37.72;17.35;;;15.20;99.90;;;;;;6099408;23;20029;-82
2022/10/29 10:31:57;;;;;;;39.53;16.95;;;;;;;;;;5960628;23;20043;-82
2022/10/29 10:34:25;;;;;;;32.88;16.45;;;15.20;99.90;;;;;;5983241;23;20031;-82
2022/10/29 10:37:10;;;;;;;27.13;15.20;;;15.10;99.90;;;;;;5960280;23;20474;-82
2022/10/29 10:39:44;;;;;;;35.03;16.33;;;15.30;99.90;;;;;;5983545;23;20558;-83
2022/10/29 10:42:23;;;;;;;30.17;16.25;;;15.40;99.90;;;;;;5983590;23;20482;-82
2022/10/29 10:44:57;;;;;;;30.38;17.20;;;15.30;99.90;;;;;;5983786;23;20024;-83
2022/10/29 10:47:27;;;;;;;25.20;15.25;;;15.60;99.90;;;;;;5960034;23;20020;-83
2022/10/29 10:49:53;;;;;;;33.13;15.18;;;;;;;;;;5983323;23;20572;-82
2022/10/29 10:52:20;;;;;;;27.55;15.10;;;;;;;;;;5960490;23;20023;-82
2022/10/29 10:54:54;;;;;;;28.23;14.82;;;15.50;99.90;;;;;;5983452;23;20536;-82
2022/10/29 10:57:24;;;;;;;31.20;16.35;;;15.60;99.90;;;;;;5960316;23;20481;-82
2022/10/29 11:00:05;;;;;;;31.95;15.65;;;15.80;99.90;;;;;;5983190;23;20469;-82
2022/10/29 11:02:50;;;;;;;30.40;14.65;;;15.90;99.90;;;;;;5983614;23;20019;-81
2022/10/29 11:05:19;;;;;;;24.73;14.90;;;15.80;99.90;;;;;;5960465;23;20054;-81
2022/10/29 11:08:25;;;;;;;28.88;15.48;;;15.70;99.90;;;;;;6015403;23;20026;-81
2022/10/29 11:11:09;;;;;;;31.05;14.18;;;16.00;99.90;;;;;;5960118;23;20462;-81
2022/10/29 11:13:37;;;;;;;;;;;15.90;99.90;;;;;;5983380;23;20052;-81
2022/10/29 11:16:22;;;;;;;26.52;14.15;;;16.00;99.90;;;;;;5960162;23;19918;-81
2022/10/29 11:18:48;;;;;;;25.40;13.20;;;;;;;;;;5983354;23;20020;-81
2022/10/29 11:21:36;;;;;;;22.50;12.77;;;16.00;99.90;;;;;;5983051;23;20067;-81
2022/10/29 11:24:32;;;;;;;26.40;13.10;;;16.10;99.90;;;;;;5983912;23;20020;-81
2022/10/29 11:27:16;;;;;;;23.05;12.10;;;16.00;99.90;;;;;;5983072;23;20031;-81
2022/10/29 11:29:47;;;;;;;;;;;16.30;99.90;;;;;;5983297;23;20020;-81
2022/10/29 11:32:19;;;;;;;22.35;12.05;;;16.30;99.90;;;;;;5960185;23;19961;-81
2022/10/29 11:35:07;;;;;;;17.73;11.68;;;16.40;99.90;;;;;;5959538;23;20020;-81
2022/10/29 11:38:02;;;;;;;21.55;10.32;;;16.30;99.90;;;;;;5960110;23;20041;-81
2022/10/29 11:40:44;;;;;;;20.45;11.65;;;16.30;99.90;;;;;;5983190;23;20024;-81
2022/10/29 11:43:11;;;;;;;16.13;10.40;;;16.40;99.90;;;;;;5959907;23;20027;-81
2022/10/29 11:45:51;;;;;;;20.95;9.85;;;;;;;;;;5983269;23;20484;-81
2022/10/29 11:48:52;;;;;;;18.88;11.05;;;16.60;99.90;;;;;;6050532;23;20456;-81
2022/10/29 11:52:02;;;;;;;15.02;11.02;;;16.60;99.90;;;;;;6069558;23;20336;-82
2022/10/29 11:54:45;;;;;;;21.52;10.32;;;;;;;;;;6045836;23;20026;-82
2022/10/29 11:57:19;;;;;;;22.08;9.13;;;16.80;99.90;;;;;;6071027;23;20054;-82
2022/10/29 12:00:02;;;;;;;22.30;11.60;;;16.80;99.90;;;;;;6048221;23;20522;-82
2022/10/29 12:02:59;;;;;;;16.02;10.05;;;16.90;99.90;;;;;;6047875;23;20023;-83
2022/10/29 12:05:58;;;;;;;26.23;10.77;;;16.90;99.90;;;;;;6047462;23;20446;-83
2022/10/29 12:08:24;;;;;;;19.58;9.38;;;;;;;;;;6071989;23;20110;-83
2022/10/29 12:11:11;;;;;;;19.95;10.18;;;17.10;99.90;;;;;;6071445;23;20059;-83
2022/10/29 12:13:50;;;;;;;22.45;10.35;;;17.20;99.90;;;;;;6071708;23;20023;-83
2022/10/29 12:16:16;;;;;;;25.30;10.95;;;;;;;;;;6047518;23;20015;-83
2022/10/29 12:19:29;;;;;;;17.27;9.88;;;17.10;99.90;;;;;;6071156;23;20026;-83
2022/10/29 12:22:04;;;;;;;21.00;10.52;;;17.10;99.90;;;;;;5956273;24;20080;-83
2022/10/29 12:25:01;;;;;;;16.13;9.43;;;17.20;99.90;;;;;;5934455;23;20024;-83
2022/10/29 12:27:27;;;;;;;18.45;9.45;;;;;;;;;;5933525;24;20484;-82
2022/10/29 12:30:05;;;;;;;20.10;11.55;;;17.20;99.90;;;;;;5956654;24;20024;-82
2022/10/29 12:32:58;;;;;;;21.30;10.55;;;17.00;99.90;;;;;;5934225;24;20024;-82
2022/10/29 12:35:39;;;;;;;29.58;10.25;;;17.30;99.90;;;;;;5988611;23;20019;-82
2022/10/29 12:38:35;;;;;;;16.10;10.20;;;17.50;99.90;;;;;;5989340;23;20024;-82
2022/10/29 12:41:07;;;;;;;18.05;10.40;;;17.60;99.90;;;;;;5989201;23;20027;-82
2022/10/29 12:43:34;;;;;;;15.75;9.05;;;17.60;99.90;;;;;;5989312;23;20051;-82
2022/10/29 12:46:21;;;;;;;19.33;10.27;;;17.70;99.90;;;;;;6013058;23;20031;-82
2022/10/29 12:49:11;;;;;;;21.77;10.07;;;17.50;99.90;;;;;;6013031;23;20051;-83
2022/10/29 12:52:02;;;;;;;26.85;10.70;;;17.90;99.90;;;;;;6012845;23;20016;-82
2022/10/29 12:54:43;;;;;;;18.10;9.57;;;17.90;99.90;;;;;;5989340;23;20086;-83
2022/10/29 12:57:12;;;;;;;16.98;9.52;;;18.00;99.90;;;;;;6014991;23;20050;-83
2022/10/29 12:59:43;;;;;;;19.10;11.05;;;18.00;99.90;;;;;;6096807;23;20026;-83
2022/10/29 13:02:31;;;;;;;21.73;10.60;;;18.10;99.90;;;;;;6071329;23;20094;-82
2022/10/29 13:05:09;;;;;;;19.67;9.98;;;18.20;99.90;;;;;;6094634;23;20030;-82
2022/10/29 13:07:46;;;;;;;22.35;11.00;;;18.10;99.90;;;;;;6094647;23;20025;-81
2022/10/29 13:10:21;;;;;;;21.95;11.77;;;18.10;99.90;;;;;;6070966;23;20443;-82
2022/10/29 13:13:09;;;;;;;20.20;10.15;;;17.90;99.90;;;;;;6071368;23;20018;-82
2022/10/29 13:15:40;;;;;;;16.45;11.15;;;18.30;99.90;;;;;;6070780;23;20086;-82
2022/10/29 13:18:12;;;;;;;27.95;10.70;;;18.00;99.90;;;;;;6070777;23;20522;-82
2022/10/29 13:20:40;;;;;;;19.55;10.65;;;18.20;99.90;;;;;;6070785;23;20340;-82
2022/10/29 13:23:21;;;;;;;19.90;11.05;;;18.50;99.90;;;;;;6096318;23;20046;-83
2022/10/29 13:25:47;;;;;;;19.77;9.80;;;18.40;99.90;;;;;;6094913;23;20017;-82
2022/10/29 13:28:13;;;;;;;17.02;9.98;;;;;;;;;;6070923;23;20026;-82
2022/10/29 13:30:41;;;;;;;14.63;9.38;;;18.40;99.90;;;;;;6095824;23;20098;-82
2022/10/29 13:33:22;;;;;;;21.60;11.43;;;18.60;99.90;;;;;;6094706;23;20018;-82
2022/10/29 13:36:05;;;;;;;19.75;9.98;;;18.70;99.90;;;;;;6118455;23;20109;-82
2022/10/29 13:38:44;;;;;;;20.35;10.07;;;18.70;99.90;;;;;;6099470;23;20037;-82
2022/10/29 13:41:20;;;;;;;19.90;9.70;;;18.60;99.90;;;;;;6074626;23;20355;-82
2022/10/29 13:44:09;;;;;;;20.48;11.35;;;18.70;99.90;;;;;;6075089;23;20026;-82
2022/10/29 13:46:59;;;;;;;19.75;10.73;;;19.00;99.90;;;;;;6099578;23;20089;-82
2022/10/29 13:49:39;;;;;;;20.98;11.27;;;18.60;99.90;;;;;;6099425;23;20018;-82
2022/10/29 13:52:08;;;;;;;27.33;11.52;;;18.80;99.90;;;;;;6099316;23;20022;-82
2022/10/29 13:55:01;;;;;;;22.42;10.40;;;18.80;99.90;;;;;;6099519;23;20093;-82
2022/10/29 13:57:36;;;;;;;22.17;9.88;;;18.90;99.90;;;;;;6099426;23;20454;-82
2022/10/29 14:00:11;;;;;;;19.98;10.60;;;18.90;99.90;;;;;;6075431;23;20013;-81